createdAt,value
2019-01-21T00:00:57.401Z,0.62
2019-01-21T00:03:21.821Z,0.70
2019-01-21T00:05:46.236Z,0.79
2019-01-21T00:08:10.652Z,0.14
2019-01-21T00:10:35.166Z,0.43
2019-01-21T00:12:59.589Z,0.48
2019-01-21T00:15:24.188Z,0.79
2019-01-21T00:17:48.590Z,0.67
2019-01-21T00:20:13.141Z,0.82
2019-01-21T00:22:37.570Z,0.52
2019-01-21T00:25:01.980Z,0.64
2019-01-21T00:27:26.421Z,0.67
2019-01-21T00:29:50.834Z,0.76
2019-01-21T00:32:24.734Z,0.28
2019-01-21T00:34:49.158Z,0.39
2019-01-21T00:37:13.560Z,0.39
2019-01-21T00:39:38.007Z,-0.64
2019-01-21T00:42:02.429Z,-0.59
2019-01-21T00:44:26.867Z,-0.13
2019-01-21T00:46:51.300Z,0.23
2019-01-21T00:49:15.732Z,0.30
2019-01-21T00:51:40.188Z,0.30
2019-01-21T00:54:04.575Z,-0.43
2019-01-21T00:56:28.984Z,-0.14
2019-01-21T00:58:53.407Z,0.23
2019-01-21T01:01:17.826Z,0.16
2019-01-21T01:03:42.226Z,0.31
2019-01-21T01:06:06.658Z,0.46
2019-01-21T01:08:31.084Z,0.55
2019-01-21T01:10:55.510Z,0.70
2019-01-21T01:13:19.928Z,0.57
2019-01-21T01:15:44.344Z,0.42
2019-01-21T01:18:08.752Z,0.55
2019-01-21T01:20:33.156Z,0.62
2019-01-21T01:22:57.577Z,0.50
2019-01-21T01:25:21.980Z,0.45
2019-01-21T01:27:46.458Z,0.53
2019-01-21T01:30:13.310Z,0.68
2019-01-21T01:32:37.896Z,0.24
2019-01-21T01:35:02.388Z,0.48
2019-01-21T01:37:26.813Z,0.51
2019-01-21T01:39:51.214Z,0.60
2019-01-21T01:42:15.624Z,0.69
2019-01-21T01:44:40.029Z,0.50
2019-01-21T01:47:04.568Z,0.61
2019-01-21T01:49:28.989Z,0.27
2019-01-21T01:51:53.383Z,0.39
2019-01-21T01:54:17.825Z,0.47
2019-01-21T01:56:42.296Z,0.64
2019-01-21T01:59:06.986Z,0.70
2019-01-21T02:01:31.386Z,0.61
2019-01-21T02:03:55.805Z,0.69
2019-01-21T02:06:20.208Z,0.57
2019-01-21T02:08:44.700Z,0.46
2019-01-21T02:11:09.179Z,0.41
2019-01-21T02:13:33.947Z,0.51
2019-01-21T02:15:58.367Z,0.54
2019-01-21T02:18:23.048Z,0.33
2019-01-21T02:20:50.555Z,0.45
2019-01-21T02:23:16.819Z,-0.02
2019-01-21T02:25:47.258Z,0.46
2019-01-21T02:28:29.169Z,0.52
2019-01-21T02:31:05.549Z,0.45
2019-01-21T02:33:41.611Z,0.39
2019-01-21T02:36:09.105Z,0.42
2019-01-21T02:38:51.502Z,0.34
2019-01-21T02:41:25.006Z,0.35
2019-01-21T02:44:03.648Z,0.44
2019-01-21T02:46:37.072Z,0.39
2019-01-21T02:49:10.195Z,-0.25
2019-01-21T02:51:49.691Z,-0.23
2019-01-21T02:54:17.139Z,-0.13
2019-01-21T02:57:01.275Z,0.11
2019-01-21T02:59:51.169Z,0.12
2019-01-21T03:02:36.157Z,0.27
2019-01-21T03:05:14.841Z,0.10
2019-01-21T03:08:07.365Z,-0.10
2019-01-21T03:10:37.548Z,0.08
2019-01-21T03:13:05.013Z,-0.25
2019-01-21T03:15:35.149Z,-1.01
2019-01-21T03:18:14.430Z,-0.99
2019-01-21T03:20:58.167Z,-0.86
2019-01-21T03:23:31.337Z,-0.67
2019-01-21T03:26:15.132Z,-0.57
2019-01-21T03:29:17.357Z,-0.52
2019-01-21T03:31:59.721Z,-1.33
2019-01-21T03:34:27.151Z,-0.64
2019-01-21T03:37:09.232Z,-1.41
2019-01-21T03:39:45.697Z,-0.93
2019-01-21T03:42:19.247Z,-1.50
2019-01-21T03:45:10.809Z,-0.82
2019-01-21T03:47:38.246Z,-0.90
2019-01-21T03:50:37.059Z,-1.46
2019-01-21T03:53:10.092Z,-1.62
2019-01-21T03:55:34.934Z,-0.84
2019-01-21T03:58:08.077Z,-0.56
2019-01-21T04:00:35.537Z,-0.48
2019-01-21T04:03:03.014Z,-1.43
2019-01-21T04:05:39.053Z,-1.31
2019-01-21T04:08:15.047Z,-1.51
2019-01-21T04:11:11.063Z,-1.77
2019-01-21T04:14:12.422Z,-1.79
2019-01-21T04:17:02.485Z,-1.74
2019-01-21T04:19:44.687Z,-1.51
2019-01-21T04:22:12.131Z,-1.49
2019-01-21T04:24:42.556Z,-1.37
2019-01-21T04:27:15.714Z,-1.42
2019-01-21T04:29:57.876Z,-1.47
2019-01-21T04:32:30.858Z,-1.36
2019-01-21T04:35:03.795Z,-2.00
2019-01-21T04:37:34.460Z,-1.72
2019-01-21T04:40:02.355Z,-1.23
2019-01-21T04:43:02.513Z,-1.16
2019-01-21T04:45:38.775Z,-1.74
2019-01-21T04:48:32.976Z,-1.63
2019-01-21T04:51:08.162Z,-2.54
2019-01-21T04:53:44.496Z,-2.09
2019-01-21T04:56:20.911Z,-2.18
2019-01-21T04:58:48.365Z,-1.84
2019-01-21T05:01:18.506Z,-2.28
2019-01-21T05:04:06.850Z,-2.28
2019-01-21T05:07:04.205Z,-1.59
2019-01-21T05:09:55.760Z,-1.48
2019-01-21T05:12:34.947Z,-1.79
2019-01-21T05:15:17.155Z,-1.73
2019-01-21T05:17:59.323Z,-1.70
2019-01-21T05:20:55.186Z,-2.10
2019-01-21T05:23:42.071Z,-2.14
2019-01-21T05:26:12.168Z,-1.87
2019-01-21T05:28:42.237Z,-1.72
2019-01-21T05:31:21.076Z,-1.95
2019-01-21T05:34:16.933Z,-2.28
2019-01-21T05:37:03.423Z,-1.71
2019-01-21T05:39:39.678Z,-2.07
2019-01-21T05:42:23.706Z,-2.12
2019-01-21T05:44:57.064Z,-1.96
2019-01-21T05:47:33.431Z,-2.17
2019-01-21T05:50:32.087Z,-1.65
2019-01-21T05:53:02.535Z,-1.42
2019-01-21T05:55:56.786Z,-1.44
2019-01-21T05:58:26.922Z,-1.80
2019-01-21T06:01:15.336Z,-1.77
2019-01-21T06:03:51.650Z,-2.00
2019-01-21T06:06:24.750Z,-2.63
2019-01-21T06:08:58.106Z,-2.93
2019-01-21T06:11:34.289Z,-2.54
2019-01-21T06:14:04.630Z,-3.40
2019-01-21T06:16:40.806Z,-3.15
2019-01-21T06:19:33.793Z,-2.76
2019-01-21T06:22:01.286Z,-3.31
2019-01-21T06:24:28.743Z,-2.84
2019-01-21T06:27:20.194Z,-2.82
2019-01-21T06:30:13.038Z,-2.34
2019-01-21T06:32:59.717Z,-2.60
2019-01-21T06:35:48.213Z,-2.94
2019-01-21T06:38:24.557Z,-2.78
2019-01-21T06:41:00.683Z,-2.65
2019-01-21T06:43:30.951Z,-2.84
2019-01-21T06:46:04.096Z,-2.71
2019-01-21T06:48:52.519Z,-3.42
2019-01-21T06:51:19.980Z,-2.91
2019-01-21T06:53:53.192Z,-2.82
2019-01-21T06:56:23.430Z,-2.70
2019-01-21T06:59:02.503Z,-2.91
2019-01-21T07:01:38.775Z,-2.64
2019-01-21T07:04:27.062Z,-2.52
2019-01-21T07:07:16.793Z,-2.31
2019-01-21T07:09:58.999Z,-2.64
2019-01-21T07:12:44.489Z,-2.88
2019-01-21T07:15:26.947Z,-2.75
2019-01-21T07:18:12.391Z,-3.22
2019-01-21T07:20:42.839Z,-3.07
2019-01-21T07:23:19.016Z,-2.81
2019-01-21T07:25:52.387Z,-3.03
2019-01-21T07:28:25.510Z,-3.24
2019-01-21T07:31:12.561Z,-2.85
2019-01-21T07:33:40.016Z,-2.84
2019-01-21T07:36:22.317Z,-3.39
2019-01-21T07:38:52.375Z,-3.14
2019-01-21T07:41:28.695Z,-3.25
2019-01-21T07:43:58.849Z,-2.84
2019-01-21T07:46:35.010Z,-3.55
2019-01-21T07:49:26.494Z,-3.52
2019-01-21T07:52:20.285Z,-3.25
2019-01-21T07:54:53.553Z,-3.55
2019-01-21T07:57:45.975Z,-3.19
2019-01-21T08:00:31.151Z,-3.66
2019-01-21T08:03:01.659Z,-3.20
2019-01-21T08:05:50.024Z,-3.43
2019-01-21T08:08:35.112Z,-3.10
2019-01-21T08:11:05.365Z,-2.48
2019-01-21T08:13:41.448Z,-2.70
2019-01-21T08:16:11.595Z,-2.81
2019-01-21T08:18:55.619Z,-3.31
2019-01-21T08:21:43.901Z,-3.22
2019-01-21T08:24:13.898Z,-2.72
2019-01-21T08:26:41.360Z,-2.66
2019-01-21T08:29:14.629Z,-2.39
2019-01-21T08:31:59.953Z,-2.16
2019-01-21T08:34:50.128Z,-2.59
2019-01-21T08:37:23.657Z,-2.55
2019-01-21T08:39:56.785Z,-2.64
2019-01-21T08:42:33.160Z,-2.60
2019-01-21T08:45:03.259Z,-2.88
2019-01-21T08:47:39.338Z,-2.85
2019-01-21T08:50:18.706Z,-2.72
2019-01-21T08:52:51.705Z,-2.40
2019-01-21T08:55:21.963Z,-2.28
2019-01-21T08:57:52.048Z,-2.43
2019-01-21T09:00:52.266Z,-2.06
2019-01-21T09:03:22.684Z,-2.21
2019-01-21T09:05:54.563Z,-2.63
2019-01-21T09:08:41.335Z,-1.97
2019-01-21T09:13:55.906Z,-2.26
2019-01-21T09:16:41.110Z,-2.60
2019-01-21T09:22:23.473Z,-1.87
2019-01-21T09:25:26.516Z,-2.02
2019-01-21T09:28:11.714Z,-1.51
2019-01-21T09:31:14.791Z,-1.56
2019-01-21T09:42:51.629Z,-1.56
2019-01-21T09:45:28.122Z,-1.25
2019-01-21T09:47:51.387Z,-0.71
2019-01-21T09:50:26.906Z,-1.12
2019-01-21T09:55:31.155Z,-1.09
2019-01-21T10:00:52.591Z,-1.00
2019-01-21T10:03:17.350Z,-0.76
2019-01-21T10:14:52.826Z,-0.40
2019-01-21T10:17:55.880Z,-0.56
2019-01-21T10:20:51.308Z,-0.44
2019-01-21T10:23:54.317Z,-0.46
2019-01-21T10:26:57.326Z,-0.16
2019-01-21T10:30:00.361Z,-0.10
2019-01-21T10:32:45.583Z,0.10
2019-01-21T10:38:45.749Z,0.41
2019-01-21T10:47:25.105Z,0.91
2019-01-21T10:50:28.135Z,1.76
2019-01-21T10:53:13.395Z,1.61
2019-01-21T11:05:07.595Z,2.56
2019-01-21T11:11:07.870Z,3.29
2019-01-21T11:20:04.605Z,2.73
2019-01-21T11:22:42.124Z,3.53
2019-01-21T11:25:45.084Z,3.82
2019-01-21T11:28:48.113Z,3.44
2019-01-21T11:31:52.994Z,4.84
2019-01-21T11:37:53.050Z,5.75
2019-01-21T11:49:47.359Z,7.72
2019-01-21T11:58:44.024Z,10.12
2019-01-21T12:04:26.209Z,9.98
2019-01-21T12:13:42.761Z,10.37
2019-01-21T12:16:45.813Z,10.36
2019-01-21T12:22:45.655Z,11.71
2019-01-21T12:28:45.838Z,11.97
2019-01-21T12:31:48.871Z,13.28
2019-01-21T12:34:52.078Z,11.40
2019-01-21T12:46:27.801Z,10.20
2019-01-21T12:49:16.066Z,12.26
2019-01-21T12:52:01.349Z,11.23
2019-01-21T12:58:01.584Z,8.41
2019-01-21T13:06:58.793Z,8.57
2019-01-21T13:12:58.512Z,12.93
2019-01-21T13:21:54.827Z,8.10
2019-01-21T13:27:54.161Z,7.54
2019-01-21T13:33:53.627Z,6.76
2019-01-21T13:36:48.898Z,9.54
2019-01-21T13:39:51.920Z,12.71
2019-01-21T13:48:31.648Z,7.47
2019-01-21T13:54:14.183Z,6.22
2019-01-21T14:00:06.223Z,7.31
2019-01-21T14:09:03.565Z,7.76
2019-01-21T14:12:06.546Z,6.47
2019-01-21T14:18:06.891Z,4.20
2019-01-21T14:21:11.164Z,3.55
2019-01-21T14:33:04.380Z,3.74
2019-01-21T14:36:07.408Z,3.47
2019-01-21T14:42:07.394Z,3.87
2019-01-21T14:56:57.332Z,3.56
2019-01-21T15:05:54.111Z,3.09
2019-01-21T15:17:48.331Z,3.39
2019-01-21T15:23:48.316Z,3.91
2019-01-21T15:32:44.608Z,2.82
2019-01-21T15:41:41.465Z,3.24
2019-01-21T15:50:38.083Z,2.95
2019-01-21T15:53:41.116Z,3.33
2019-01-21T16:05:35.349Z,2.33
2019-01-21T16:08:20.577Z,2.43
2019-01-21T16:11:23.614Z,2.21
2019-01-21T16:14:08.850Z,2.31
2019-01-21T16:23:05.998Z,1.85
2019-01-21T16:31:44.271Z,1.69
2019-01-21T16:34:47.290Z,1.93
2019-01-21T16:40:47.507Z,1.62
2019-01-21T16:43:11.965Z,1.91
2019-01-21T16:45:36.375Z,2.20
2019-01-21T16:48:00.833Z,1.96
2019-01-21T16:50:25.249Z,2.23
2019-01-21T16:52:49.664Z,2.12
2019-01-21T16:55:14.197Z,2.30
2019-01-21T16:57:59.403Z,2.40
2019-01-21T17:00:23.810Z,2.10
2019-01-21T17:02:48.240Z,2.23
2019-01-21T17:08:09.215Z,2.36
2019-01-21T17:10:39.166Z,1.89
2019-01-21T17:13:05.191Z,2.02
2019-01-21T17:15:29.631Z,2.10
2019-01-21T17:17:54.036Z,2.05
2019-01-21T17:20:39.273Z,1.64
2019-01-21T17:23:03.703Z,2.00
2019-01-21T17:25:28.187Z,1.99
2019-01-21T17:27:52.638Z,1.94
2019-01-21T17:30:37.838Z,2.07
2019-01-21T17:33:02.269Z,1.89
2019-01-21T17:35:26.696Z,2.19
2019-01-21T17:37:51.152Z,2.26
2019-01-21T17:43:12.683Z,1.81
2019-01-21T17:45:37.098Z,1.74
2019-01-21T17:48:01.648Z,1.83
2019-01-21T17:50:26.097Z,1.91
2019-01-21T17:52:50.527Z,1.47
2019-01-21T17:55:15.371Z,1.90
2019-01-21T17:57:39.788Z,2.13
2019-01-21T18:00:24.997Z,2.32
2019-01-21T18:02:49.413Z,1.81
2019-01-21T18:05:13.950Z,1.78
2019-01-21T18:07:38.514Z,2.18
2019-01-21T18:10:02.993Z,2.12
2019-01-21T18:12:27.415Z,1.99
2019-01-21T18:14:51.868Z,1.98
2019-01-21T18:17:37.060Z,1.78
2019-01-21T18:20:01.484Z,1.85
2019-01-21T18:22:25.888Z,1.74
2019-01-21T18:24:50.331Z,1.64
2019-01-21T18:27:14.724Z,1.96
2019-01-21T18:32:14.952Z,2.00
2019-01-21T18:34:39.349Z,1.80
2019-01-21T18:37:04.027Z,2.23
2019-01-21T18:39:28.459Z,2.40
2019-01-21T18:44:29.458Z,2.41
2019-01-21T18:46:53.930Z,3.03
2019-01-21T18:49:22.818Z,2.23
2019-01-21T18:51:50.152Z,2.61
2019-01-21T18:54:14.564Z,2.07
2019-01-21T18:56:38.980Z,2.42
2019-01-21T18:59:03.392Z,2.54
2019-01-21T19:01:27.800Z,1.92
2019-01-21T19:03:52.248Z,1.88
2019-01-21T19:06:16.647Z,2.25
2019-01-21T19:08:41.208Z,2.31
2019-01-21T19:11:05.632Z,2.10
2019-01-21T19:13:30.059Z,2.58
2019-01-21T19:15:54.537Z,2.31
2019-01-21T19:18:19.012Z,2.11
2019-01-21T19:20:43.523Z,2.00
2019-01-21T19:23:07.977Z,1.71
2019-01-21T19:25:32.478Z,1.78
2019-01-21T19:30:32.794Z,1.62
2019-01-21T19:32:57.288Z,1.82
2019-01-21T19:38:18.368Z,1.74
2019-01-21T19:40:42.849Z,2.12
2019-01-21T19:43:07.262Z,1.95
2019-01-21T19:45:31.741Z,1.87
2019-01-21T19:47:56.170Z,1.74
2019-01-21T19:53:17.786Z,1.34
2019-01-21T19:58:38.713Z,1.87
2019-01-21T20:01:03.141Z,1.65
2019-01-21T20:03:27.564Z,1.93
2019-01-21T20:05:52.033Z,1.55
2019-01-21T20:08:16.542Z,2.12
2019-01-21T20:14:14.413Z,1.98
2019-01-21T20:16:38.940Z,1.72
2019-01-21T20:19:03.380Z,1.54
2019-01-21T20:21:27.804Z,1.41
2019-01-21T20:23:52.271Z,1.41
2019-01-21T20:26:16.690Z,1.70
2019-01-21T20:28:41.129Z,1.67
2019-01-21T20:31:05.556Z,1.81
2019-01-21T20:33:29.993Z,1.83
2019-01-21T20:35:54.416Z,1.59
2019-01-21T20:38:18.834Z,1.58
2019-01-21T20:40:43.261Z,1.36
2019-01-21T20:43:07.677Z,2.04
2019-01-21T20:45:32.193Z,2.05
2019-01-21T20:47:56.667Z,1.60
2019-01-21T20:53:17.616Z,1.88
2019-01-21T20:55:42.065Z,2.01
2019-01-21T20:58:06.461Z,1.91
2019-01-21T21:00:51.663Z,2.38
2019-01-21T21:03:16.070Z,2.46
2019-01-21T21:05:40.554Z,2.44
2019-01-21T21:08:05.099Z,2.25
2019-01-21T21:13:08.881Z,2.21
2019-01-21T21:18:30.891Z,1.89
2019-01-21T21:20:55.322Z,1.65
2019-01-21T21:23:19.780Z,2.28
2019-01-21T21:25:49.501Z,2.25
2019-01-21T21:28:13.925Z,2.00
2019-01-21T21:30:38.409Z,2.27
2019-01-21T21:33:03.250Z,2.34
2019-01-21T21:35:27.826Z,2.16
2019-01-21T21:37:52.398Z,2.08
2019-01-21T21:40:37.588Z,2.05
2019-01-21T21:43:02.150Z,1.90
2019-01-21T21:45:27.905Z,1.76
2019-01-21T21:48:02.876Z,1.75
2019-01-21T21:53:24.101Z,1.48
2019-01-21T21:55:48.512Z,1.66
2019-01-21T21:58:13.041Z,1.68
2019-01-21T22:00:37.687Z,1.64
2019-01-21T22:03:02.190Z,1.55
2019-01-21T22:05:26.698Z,2.03
2019-01-21T22:07:51.227Z,2.02
2019-01-21T22:10:36.452Z,2.01
2019-01-21T22:13:00.938Z,2.09
2019-01-21T22:18:22.045Z,2.08
2019-01-21T22:20:46.493Z,1.84
2019-01-21T22:23:10.918Z,2.12
2019-01-21T22:25:35.369Z,1.78
2019-01-21T22:27:59.787Z,1.66
2019-01-21T22:33:20.999Z,1.77
2019-01-21T22:35:45.404Z,2.10
2019-01-21T22:38:22.362Z,2.20
2019-01-21T22:40:46.800Z,1.84
2019-01-21T22:43:11.207Z,1.71
2019-01-21T22:45:36.040Z,1.87
2019-01-21T22:48:00.476Z,1.58
2019-01-21T22:50:24.871Z,2.04
2019-01-21T22:52:49.287Z,1.78
2019-01-21T22:55:26.107Z,1.55
2019-01-21T22:57:50.570Z,1.83
2019-01-21T23:06:08.408Z,2.00
2019-01-21T23:08:32.825Z,2.17
2019-01-21T23:10:57.302Z,2.27
2019-01-21T23:13:21.741Z,2.15
2019-01-21T23:15:46.149Z,2.36
2019-01-21T23:18:10.658Z,2.38
2019-01-21T23:20:48.696Z,2.13
2019-01-21T23:23:13.168Z,2.10
2019-01-21T23:25:37.591Z,1.91
2019-01-21T23:28:02.027Z,2.06
2019-01-21T23:30:26.506Z,1.50
2019-01-21T23:32:50.994Z,1.40
2019-01-21T23:35:15.499Z,1.90
2019-01-21T23:37:39.894Z,1.35
2019-01-21T23:43:01.957Z,1.66
2019-01-21T23:45:26.372Z,1.57
2019-01-21T23:47:50.786Z,1.59
2019-01-21T23:53:12.127Z,1.54
2019-01-21T23:55:36.576Z,1.69
2019-01-21T23:58:00.986Z,1.70
